createdAt,value
2022-09-28T00:02:08.689Z,98709.75
2022-09-28T00:04:35.236Z,98708.06
2022-09-28T00:07:01.679Z,98700.22
2022-09-28T00:09:28.157Z,98709.09
2022-09-28T00:11:56.197Z,98701.28
2022-09-28T00:14:23.008Z,98705.72
2022-09-28T00:16:49.960Z,98697.88
2022-09-28T00:19:16.857Z,98697.94
2022-09-28T00:21:43.459Z,98690.94
2022-09-28T00:24:22.923Z,98683.06
2022-09-28T00:26:55.962Z,98680.41
2022-09-28T00:29:33.861Z,98678.78
2022-09-28T00:32:05.071Z,98676.25
2022-09-28T00:34:34.770Z,98671.09
2022-09-28T00:37:03.273Z,98675.59
2022-09-28T00:39:31.710Z,98666.03
2022-09-28T00:41:58.904Z,98653.81
2022-09-28T00:44:25.439Z,98651.25
2022-09-28T00:46:56.212Z,98654.81
2022-09-28T00:49:32.559Z,98657.50
2022-09-28T00:52:00.214Z,98654.91
2022-09-28T00:54:26.791Z,98650.59
2022-09-28T00:56:53.364Z,98644.50
2022-09-28T00:59:19.864Z,98648.94
2022-09-28T01:01:46.752Z,98639.31
2022-09-28T01:04:13.644Z,98641.09
2022-09-28T01:06:40.184Z,98637.63
2022-09-28T01:09:10.490Z,98646.44
2022-09-28T01:11:39.163Z,98635.91
2022-09-28T01:14:13.914Z,98631.47
2022-09-28T01:16:40.370Z,98634.91
2022-09-28T01:19:45.405Z,98626.97
2022-09-28T01:22:31.132Z,98624.28
2022-09-28T01:25:12.194Z,98625.16
2022-09-28T01:27:51.519Z,98617.25
2022-09-28T01:30:20.832Z,98613.75
2022-09-28T01:32:47.302Z,98612.09
2022-09-28T01:35:23.559Z,98606.91
2022-09-28T01:37:55.761Z,98606.13
2022-09-28T01:40:25.773Z,98606.22
2022-09-28T01:42:59.712Z,98606.31
2022-09-28T01:45:36.765Z,98594.09
2022-09-28T01:48:06.916Z,98597.66
2022-09-28T01:50:38.398Z,98593.38
2022-09-28T01:53:30.381Z,98589.03
2022-09-28T01:56:05.229Z,98581.19
2022-09-28T01:58:48.858Z,98588.28
2022-09-28T02:01:21.167Z,98583.94
2022-09-28T02:03:59.014Z,98584.88
2022-09-28T02:06:31.928Z,98576.97
2022-09-28T02:09:05.814Z,98580.53
2022-09-28T02:11:47.254Z,98577.06
2022-09-28T02:14:17.588Z,98574.44
2022-09-28T02:16:52.532Z,98576.19
2022-09-28T02:19:27.648Z,98571.81
2022-09-28T02:21:59.517Z,98561.25
2022-09-28T02:24:37.793Z,98558.59
2022-09-28T02:27:13.872Z,98557.69
2022-09-28T02:29:41.002Z,98562.88
2022-09-28T02:32:07.553Z,98568.91
2022-09-28T02:34:35.608Z,98565.31
2022-09-28T02:37:02.808Z,98557.34
2022-09-28T02:39:29.612Z,98557.22
2022-09-28T02:42:19.918Z,98566.81
2022-09-28T02:45:05.006Z,98557.03
2022-09-28T02:47:44.578Z,98559.56
2022-09-28T02:50:33.975Z,98554.25
2022-09-28T02:53:38.530Z,98554.13
2022-09-28T02:56:35.899Z,98554.91
2022-09-28T02:59:26.089Z,98554.81
2022-09-28T03:02:01.663Z,98549.47
2022-09-28T03:04:37.231Z,98552.91
2022-09-28T03:07:26.701Z,98549.34
2022-09-28T03:10:23.913Z,98550.16
2022-09-28T03:12:53.512Z,98544.00
2022-09-28T03:15:34.740Z,98543.06
2022-09-28T03:18:01.572Z,98543.88
2022-09-28T03:20:30.544Z,98541.22
2022-09-28T03:23:22.716Z,98542.06
2022-09-28T03:25:43.520Z,98546.41
2022-09-28T03:28:10.045Z,98543.72
2022-09-28T03:30:42.233Z,98536.66
2022-09-28T03:33:09.038Z,98531.38
2022-09-28T03:35:35.546Z,98534.00
2022-09-28T03:38:02.139Z,98533.94
2022-09-28T03:40:30.746Z,98531.25
2022-09-28T03:42:57.231Z,98525.13
2022-09-28T03:45:23.753Z,98530.41
2022-09-28T03:47:51.862Z,98527.78
2022-09-28T03:50:18.831Z,98517.31
2022-09-28T03:52:45.382Z,98519.09
2022-09-28T03:55:11.984Z,98514.75
2022-09-28T03:57:38.559Z,98519.25
2022-09-28T04:00:06.329Z,98519.34
2022-09-28T04:02:40.158Z,98514.13
2022-09-28T04:05:06.916Z,98511.63
2022-09-28T04:07:33.445Z,98509.84
2022-09-28T04:09:59.975Z,98501.13
2022-09-28T04:12:26.500Z,98501.16
2022-09-28T04:14:53.306Z,98495.06
2022-09-28T04:17:19.839Z,98507.34
2022-09-28T04:19:47.398Z,98507.34
2022-09-28T04:22:23.398Z,98503.84
2022-09-28T04:24:49.881Z,98497.63
2022-09-28T04:27:35.938Z,98499.38
2022-09-28T04:30:03.109Z,98502.00
2022-09-28T04:32:31.402Z,98495.84
2022-09-28T04:34:57.945Z,98498.53
2022-09-28T04:37:24.702Z,98494.19
2022-09-28T04:39:51.218Z,98492.44
2022-09-28T04:42:19.088Z,98490.69
2022-09-28T04:44:45.953Z,98489.75
2022-09-28T04:47:12.554Z,98489.72
2022-09-28T04:50:11.487Z,98482.59
2022-09-28T04:52:57.974Z,98485.16
2022-09-28T04:55:24.447Z,98489.53
2022-09-28T04:57:50.978Z,98487.72
2022-09-28T05:00:17.502Z,98485.94
2022-09-28T05:02:56.417Z,98484.19
2022-09-28T05:05:47.487Z,98484.16
2022-09-28T05:08:30.621Z,98482.34
2022-09-28T05:11:01.742Z,98484.09
2022-09-28T05:13:28.650Z,98484.09
2022-09-28T05:15:59.676Z,98486.72
2022-09-28T05:18:28.544Z,98491.97
2022-09-28T05:21:02.545Z,98490.16
2022-09-28T05:23:29.184Z,98487.47
2022-09-28T05:25:57.007Z,98480.41
2022-09-28T05:28:28.778Z,98482.09
2022-09-28T05:31:14.402Z,98478.53
2022-09-28T05:33:57.309Z,98482.91
2022-09-28T05:36:26.800Z,98481.94
2022-09-28T05:38:53.637Z,98477.53
2022-09-28T05:41:20.237Z,98485.38
2022-09-28T05:43:46.745Z,98478.31
2022-09-28T05:46:13.797Z,98478.28
2022-09-28T05:48:41.521Z,98473.81
2022-09-28T05:51:10.098Z,98479.91
2022-09-28T05:53:36.732Z,98478.13
2022-09-28T05:56:04.156Z,98485.97
2022-09-28T05:58:32.389Z,98480.59
2022-09-28T06:00:59.413Z,98474.38
2022-09-28T06:03:25.971Z,98468.13
2022-09-28T06:05:56.842Z,98475.97
2022-09-28T06:08:24.015Z,98471.50
2022-09-28T06:11:02.111Z,98478.50
2022-09-28T06:13:29.312Z,98470.53
2022-09-28T06:15:55.921Z,98476.63
2022-09-28T06:18:22.573Z,98478.38
2022-09-28T06:21:13.679Z,98472.19
2022-09-28T06:23:48.174Z,98475.66
2022-09-28T06:26:16.540Z,98480.03
2022-09-28T06:28:44.448Z,98482.63
2022-09-28T06:31:11.203Z,98482.63
2022-09-28T06:33:44.707Z,98480.03
2022-09-28T06:36:11.273Z,98487.03
2022-09-28T06:38:38.320Z,98489.66
2022-09-28T06:41:05.391Z,98479.94
2022-09-28T06:43:34.586Z,98487.81
2022-09-28T06:46:14.152Z,98493.94
2022-09-28T06:49:09.260Z,98493.03
2022-09-28T06:52:12.011Z,98493.91
2022-09-28T06:54:57.157Z,98496.53
2022-09-28T06:57:32.531Z,98497.38
2022-09-28T06:59:59.186Z,98492.88
2022-09-28T07:02:28.609Z,98494.53
2022-09-28T07:05:12.512Z,98495.31
2022-09-28T07:07:55.180Z,98496.97
2022-09-28T07:11:01.413Z,98497.69
2022-09-28T07:13:50.230Z,98493.16
2022-09-28T07:16:24.098Z,98497.41
2022-09-28T07:18:53.309Z,98502.53
2022-09-28T07:21:29.347Z,98487.38
2022-09-28T07:23:59.943Z,98497.75
2022-09-28T07:26:35.110Z,98503.75
2022-09-28T07:29:06.771Z,98501.78
2022-09-28T07:31:53.649Z,98505.00
2022-09-28T07:34:45.348Z,98508.25
2022-09-28T07:37:18.861Z,98512.41
2022-09-28T07:40:04.955Z,98508.69
2022-09-28T07:42:34.385Z,98508.41
2022-09-28T07:45:00.950Z,98509.91
2022-09-28T07:47:33.892Z,98513.19
2022-09-28T07:50:21.151Z,98515.63
2022-09-28T07:53:00.498Z,98523.38
2022-09-28T07:56:07.217Z,98525.00
2022-09-28T07:58:40.832Z,98526.56
2022-09-28T08:01:41.922Z,98518.34
2022-09-28T08:04:11.184Z,98525.22
2022-09-28T08:06:40.415Z,98526.94
2022-09-28T08:09:08.170Z,98531.25
2022-09-28T08:11:53.212Z,98527.50
2022-09-28T08:14:34.322Z,98533.50
2022-09-28T08:17:16.108Z,98530.66
2022-09-28T08:20:07.712Z,98541.09
2022-09-28T08:22:34.292Z,98540.94
2022-09-28T08:25:01.161Z,98535.44
2022-09-28T08:27:28.785Z,98545.00
2022-09-28T08:29:55.505Z,98536.97
2022-09-28T08:33:00.519Z,98543.00
2022-09-28T08:35:42.314Z,98544.59
2022-09-28T08:38:11.572Z,98551.63
2022-09-28T08:41:22.497Z,98546.38
2022-09-28T08:44:15.702Z,98554.28
2022-09-28T08:47:07.717Z,98552.44
2022-09-28T08:49:48.586Z,98550.63
2022-09-28T08:52:39.729Z,98554.06
2022-09-28T08:55:46.779Z,98562.75
2022-09-28T08:58:17.703Z,98562.59
2022-09-28T09:00:50.286Z,98565.13
2022-09-28T09:03:31.808Z,98564.97
2022-09-28T09:06:28.396Z,98568.34
2022-09-28T09:09:31.117Z,98571.75
2022-09-28T09:12:36.976Z,98568.06
2022-09-28T09:15:19.302Z,98570.66
2022-09-28T09:18:19.915Z,98574.19
2022-09-28T09:21:06.287Z,98574.16
2022-09-28T09:23:47.485Z,98574.19
2022-09-28T09:26:25.601Z,98575.06
2022-09-28T09:29:30.810Z,98577.72
2022-09-28T09:32:31.264Z,98580.50
2022-09-28T09:35:16.492Z,98579.44
2022-09-28T09:38:29.981Z,98585.47
2022-09-28T09:41:36.075Z,98580.75
2022-09-28T09:44:28.310Z,98586.72
2022-09-28T09:47:09.665Z,98586.56
2022-09-28T09:49:49.902Z,98588.16
2022-09-28T09:52:26.476Z,98588.16
2022-09-28T09:55:05.502Z,98592.63
2022-09-28T09:57:45.560Z,98598.78
2022-09-28T10:00:32.067Z,98593.78
2022-09-28T10:03:19.536Z,98597.25
2022-09-28T10:06:12.063Z,98603.44
2022-09-28T10:08:48.304Z,98613.78
2022-09-28T10:11:25.668Z,98605.66
2022-09-28T10:13:55.346Z,98605.47
2022-09-28T10:16:43.007Z,98606.28
2022-09-28T10:19:19.383Z,98602.47
2022-09-28T10:22:06.268Z,98602.09
2022-09-28T10:24:45.231Z,98602.66
2022-09-28T10:27:16.778Z,98602.53
2022-09-28T10:29:53.153Z,98608.53
2022-09-28T10:32:36.049Z,98610.94
2022-09-28T10:35:17.939Z,98611.66
2022-09-28T10:38:06.716Z,98612.47
2022-09-28T10:41:13.490Z,98612.53
2022-09-28T10:44:10.906Z,98622.41
2022-09-28T10:46:44.939Z,98623.47
2022-09-28T10:49:18.692Z,98621.13
2022-09-28T10:51:54.760Z,98616.34
2022-09-28T10:54:30.526Z,98624.72
2022-09-28T10:56:59.753Z,98627.66
2022-09-28T10:59:42.400Z,98631.56
2022-09-28T11:02:41.540Z,98625.72
2022-09-28T11:05:27.966Z,98625.94
2022-09-28T11:07:59.176Z,98630.44
2022-09-28T11:10:33.642Z,98634.88
2022-09-28T11:13:10.513Z,98631.31
2022-09-28T11:15:44.109Z,98636.56
2022-09-28T11:18:25.197Z,98633.00
2022-09-28T11:20:51.874Z,98637.31
2022-09-28T11:23:20.418Z,98640.59
2022-09-28T11:25:58.807Z,98636.88
2022-09-28T11:28:32.636Z,98634.88
2022-09-28T11:31:02.372Z,98642.19
2022-09-28T11:34:03.164Z,98644.63
2022-09-28T11:36:48.651Z,98649.53
2022-09-28T11:39:17.786Z,98646.34
2022-09-28T11:42:10.995Z,98647.69
2022-09-28T11:44:48.276Z,98646.88
2022-09-28T11:47:47.113Z,98648.97
2022-09-28T11:50:48.889Z,98643.19
2022-09-28T11:53:20.321Z,98646.28
2022-09-28T11:55:59.240Z,98646.81
2022-09-28T11:58:40.987Z,98649.19
2022-09-28T12:01:19.894Z,98650.13
2022-09-28T12:04:33.658Z,98654.53
2022-09-28T12:07:06.684Z,98652.59
2022-09-28T12:10:00.318Z,98651.66
2022-09-28T12:12:35.312Z,98650.72
2022-09-28T12:15:18.599Z,98657.59
2022-09-28T12:17:56.124Z,98648.47
2022-09-28T12:20:41.972Z,98647.53
2022-09-28T12:23:17.706Z,98648.47
2022-09-28T12:25:51.650Z,98644.09
2022-09-28T12:28:33.192Z,98651.13
2022-09-28T12:31:11.843Z,98646.72
2022-09-28T12:33:39.506Z,98651.84
2022-09-28T12:36:14.917Z,98648.47
2022-09-28T12:39:14.690Z,98653.22
2022-09-28T12:41:50.696Z,98656.22
2022-09-28T12:44:41.787Z,98657.44
2022-09-28T12:47:40.728Z,98659.53
2022-09-28T12:50:40.830Z,98669.38
2022-09-28T12:53:34.103Z,98664.50
2022-09-28T12:56:22.362Z,98673.13
2022-09-28T12:59:20.860Z,98684.13
2022-09-28T13:01:57.190Z,98681.66
2022-09-28T13:04:55.022Z,98683.25
2022-09-28T13:07:30.759Z,98695.31
2022-09-28T13:10:48.627Z,98696.69
2022-09-28T13:13:36.119Z,98691.16
2022-09-28T13:16:17.517Z,98701.09
2022-09-28T13:19:13.842Z,98698.50
2022-09-28T13:22:04.092Z,98698.53
2022-09-28T13:24:38.660Z,98699.53
2022-09-28T13:27:21.029Z,98698.69
2022-09-28T13:29:50.386Z,98698.09
2022-09-28T13:32:18.565Z,98703.25
2022-09-28T13:34:50.462Z,98701.53
2022-09-28T13:37:16.880Z,98699.78
2022-09-28T13:39:52.115Z,98705.16
2022-09-28T13:42:44.945Z,98704.13
2022-09-28T13:45:23.123Z,98707.44
2022-09-28T13:48:16.247Z,98703.78
2022-09-28T13:51:04.535Z,98714.22
2022-09-28T13:53:47.143Z,98713.38
2022-09-28T13:56:50.625Z,98714.25
2022-09-28T13:59:19.855Z,98718.47
2022-09-28T14:02:18.615Z,98722.88
2022-09-28T14:04:55.137Z,98719.28
2022-09-28T14:07:33.635Z,98729.81
2022-09-28T14:10:55.065Z,98734.16
2022-09-28T14:13:43.473Z,98727.81
2022-09-28T14:16:36.914Z,98726.66
2022-09-28T14:19:24.377Z,98727.31
2022-09-28T14:22:15.797Z,98727.13
2022-09-28T14:24:52.087Z,98734.00
2022-09-28T14:27:36.988Z,98736.50
2022-09-28T14:30:12.346Z,98736.09
2022-09-28T14:32:42.844Z,98735.00
2022-09-28T14:35:43.287Z,98743.56
2022-09-28T14:38:41.265Z,98737.19
2022-09-28T14:41:25.648Z,98735.34
2022-09-28T14:44:02.778Z,98736.00
2022-09-28T14:46:31.032Z,98742.97
2022-09-28T14:49:09.508Z,98739.34
2022-09-28T14:51:38.837Z,98745.44
2022-09-28T14:54:17.198Z,98741.97
2022-09-28T14:57:08.873Z,98737.56
2022-09-28T14:59:47.773Z,98735.78
2022-09-28T15:02:27.410Z,98738.38
2022-09-28T15:04:56.829Z,98750.84
2022-09-28T15:07:27.063Z,98742.03
2022-09-28T15:09:55.557Z,98743.13
2022-09-28T15:12:27.573Z,98749.34
2022-09-28T15:15:05.825Z,98747.53
2022-09-28T15:17:40.264Z,98753.41
2022-09-28T15:20:24.575Z,98754.16
2022-09-28T15:22:58.569Z,98750.53
2022-09-28T15:25:28.807Z,98746.56
2022-09-28T15:27:58.214Z,98756.56
2022-09-28T15:30:35.068Z,98750.53
2022-09-28T15:33:22.109Z,98763.66
2022-09-28T15:35:59.459Z,98751.28
2022-09-28T15:38:26.063Z,98752.31
2022-09-28T15:40:52.910Z,98756.59
2022-09-28T15:43:33.081Z,98755.75
2022-09-28T15:46:21.831Z,98764.25
2022-09-28T15:48:59.531Z,98758.50
2022-09-28T15:51:27.479Z,98768.28
2022-09-28T15:54:17.499Z,98767.34
2022-09-28T15:56:52.918Z,98769.41
2022-09-28T15:59:30.156Z,98775.34
2022-09-28T16:02:11.225Z,98775.84
2022-09-28T16:04:47.865Z,98777.19
2022-09-28T16:07:50.626Z,98782.09
2022-09-28T16:10:20.196Z,98790.44
2022-09-28T16:12:50.954Z,98801.28
2022-09-28T16:15:25.244Z,98799.66
2022-09-28T16:18:00.594Z,98797.19
2022-09-28T16:20:32.003Z,98797.28
2022-09-28T16:23:05.986Z,98796.44
2022-09-28T16:25:37.084Z,98807.13
2022-09-28T16:28:04.809Z,98805.44
2022-09-28T16:30:33.687Z,98809.97
2022-09-28T16:33:03.630Z,98808.34
2022-09-28T16:35:50.385Z,98813.72
2022-09-28T16:38:18.580Z,98808.53
2022-09-28T16:40:49.563Z,98817.41
2022-09-28T16:43:31.301Z,98820.97
2022-09-28T16:46:15.861Z,98827.09
2022-09-28T16:48:55.746Z,98825.31
2022-09-28T16:51:23.339Z,98827.13
2022-09-28T16:54:08.520Z,98828.06
2022-09-28T16:56:36.442Z,98830.72
2022-09-28T16:59:03.559Z,98835.19
2022-09-28T17:01:31.302Z,98832.56
2022-09-28T17:03:58.220Z,98831.66
2022-09-28T17:06:25.384Z,98834.31
2022-09-28T17:08:54.339Z,98836.97
2022-09-28T17:11:24.648Z,98835.25
2022-09-28T17:13:52.249Z,98835.28
2022-09-28T17:16:42.702Z,98842.34
2022-09-28T17:19:18.098Z,98843.31
2022-09-28T17:21:44.728Z,98852.22
2022-09-28T17:24:11.341Z,98847.94
2022-09-28T17:26:38.173Z,98847.97
2022-09-28T17:29:08.662Z,98851.56
2022-09-28T17:31:35.592Z,98863.09
2022-09-28T17:34:02.054Z,98863.13
2022-09-28T17:36:32.671Z,98864.97
2022-09-28T17:39:00.260Z,98864.13
2022-09-28T17:41:26.780Z,98865.94
2022-09-28T17:43:53.345Z,98870.34
2022-09-28T17:46:32.195Z,98879.22
2022-09-28T17:49:00.969Z,98878.34
2022-09-28T17:51:30.106Z,98877.53
2022-09-28T17:53:57.444Z,98876.69
2022-09-28T17:56:27.506Z,98873.16
2022-09-28T17:59:00.212Z,98876.69
2022-09-28T18:01:30.091Z,98885.47
2022-09-28T18:03:56.686Z,98888.97
2022-09-28T18:06:23.695Z,98884.53
2022-09-28T18:08:50.360Z,98890.59
2022-09-28T18:11:17.402Z,98894.09
2022-09-28T18:13:45.970Z,98896.72
2022-09-28T18:16:14.246Z,98892.28
2022-09-28T18:18:41.647Z,98896.69
2022-09-28T18:21:09.342Z,98905.47
2022-09-28T18:23:44.959Z,98908.16
2022-09-28T18:26:13.205Z,98910.84
2022-09-28T18:28:40.459Z,98910.91
2022-09-28T18:31:08.989Z,98907.41
2022-09-28T18:33:36.572Z,98912.75
2022-09-28T18:36:04.004Z,98912.78
2022-09-28T18:38:30.537Z,98918.13
2022-09-28T18:40:57.105Z,98913.78
2022-09-28T18:43:23.816Z,98916.44
2022-09-28T18:45:50.362Z,98919.03
2022-09-28T18:48:18.787Z,98910.25
2022-09-28T18:50:45.546Z,98919.06
2022-09-28T18:53:12.023Z,98914.63
2022-09-28T18:55:40.485Z,98912.91
2022-09-28T18:58:09.131Z,98918.19
2022-09-28T19:00:42.135Z,98920.88
2022-09-28T19:03:11.227Z,98920.88
2022-09-28T19:05:42.852Z,98927.97
2022-09-28T19:08:10.115Z,98920.00
2022-09-28T19:10:36.768Z,98931.44
2022-09-28T19:13:03.301Z,98929.63
2022-09-28T19:15:30.001Z,98937.56
2022-09-28T19:17:57.059Z,98928.72
2022-09-28T19:20:23.656Z,98933.13
2022-09-28T19:22:50.553Z,98926.09
2022-09-28T19:25:17.237Z,98927.88
2022-09-28T19:27:43.910Z,98921.69
2022-09-28T19:30:10.967Z,98928.78
2022-09-28T19:32:37.448Z,98934.06
2022-09-28T19:35:05.285Z,98927.91
2022-09-28T19:37:35.428Z,98932.31
2022-09-28T19:40:05.777Z,98931.44
2022-09-28T19:42:32.716Z,98935.81
2022-09-28T19:44:59.278Z,98933.13
2022-09-28T19:47:25.868Z,98932.28
2022-09-28T19:49:52.505Z,98944.56
2022-09-28T19:52:19.193Z,98946.34
2022-09-28T19:54:54.352Z,98946.31
2022-09-28T19:57:21.037Z,98948.94
2022-09-28T19:59:52.324Z,98955.97
2022-09-28T20:02:19.554Z,98947.97
2022-09-28T20:04:46.449Z,98953.25
2022-09-28T20:07:13.181Z,98955.88
2022-09-28T20:09:40.077Z,98948.84
2022-09-28T20:12:06.549Z,98951.47
2022-09-28T20:14:37.978Z,98956.75
2022-09-28T20:17:06.987Z,98961.97
2022-09-28T20:19:33.611Z,98961.97
2022-09-28T20:22:02.682Z,98969.06
2022-09-28T20:24:29.595Z,98970.00
2022-09-28T20:26:56.288Z,98969.16
2022-09-28T20:29:24.261Z,98973.63
2022-09-28T20:31:51.774Z,98970.97
2022-09-28T20:34:18.445Z,98967.41
2022-09-28T20:36:45.101Z,98967.41
2022-09-28T20:39:12.184Z,98976.22
2022-09-28T20:41:39.161Z,98977.94
2022-09-28T20:44:16.079Z,98972.69
2022-09-28T20:46:44.185Z,98978.88
2022-09-28T20:49:11.042Z,98973.59
2022-09-28T20:51:37.575Z,98981.50
2022-09-28T20:54:04.224Z,98977.13
2022-09-28T20:56:39.667Z,98981.59
2022-09-28T20:59:12.653Z,98985.22
2022-09-28T21:01:39.855Z,98979.91
2022-09-28T21:04:08.998Z,98980.75
2022-09-28T21:06:41.293Z,98981.63
2022-09-28T21:09:09.650Z,98986.03
2022-09-28T21:11:37.014Z,98985.13
2022-09-28T21:14:06.246Z,98986.84
2022-09-28T21:16:34.416Z,98993.03
2022-09-28T21:19:00.957Z,98987.72
2022-09-28T21:21:27.559Z,98988.59
2022-09-28T21:23:55.680Z,98992.13
2022-09-28T21:26:25.134Z,98994.78
2022-09-28T21:28:53.863Z,98998.31
2022-09-28T21:31:26.247Z,99000.06
2022-09-28T21:33:55.225Z,99005.34
2022-09-28T21:36:21.719Z,98997.44
2022-09-28T21:38:48.207Z,99001.00
2022-09-28T21:41:14.886Z,98999.25
2022-09-28T21:43:41.433Z,99001.06
2022-09-28T21:46:08.064Z,98998.50
2022-09-28T21:48:34.953Z,99008.28
2022-09-28T21:51:06.961Z,99004.00
2022-09-28T21:53:36.155Z,99006.72
2022-09-28T21:56:04.686Z,99015.56
2022-09-28T21:58:33.573Z,99013.00
2022-09-28T22:01:01.314Z,99016.59
2022-09-28T22:03:28.856Z,99016.66
2022-09-28T22:05:55.423Z,99021.16
2022-09-28T22:08:23.439Z,99017.69
2022-09-28T22:11:03.141Z,99019.47
2022-09-28T22:13:31.631Z,99023.00
2022-09-28T22:15:58.879Z,99017.69
2022-09-28T22:18:26.884Z,99029.19
2022-09-28T22:21:06.457Z,99017.75
2022-09-28T22:23:33.785Z,99023.09
2022-09-28T22:26:02.039Z,99019.59
2022-09-28T22:28:29.139Z,99017.06
2022-09-28T22:30:56.443Z,99018.00
2022-09-28T22:33:23.847Z,99023.34
2022-09-28T22:35:51.281Z,99025.16
2022-09-28T22:38:19.044Z,99024.31
2022-09-28T22:40:54.573Z,99026.13
2022-09-28T22:43:23.448Z,99021.75
2022-09-28T22:45:50.344Z,99030.59
2022-09-28T22:48:17.301Z,99031.56
2022-09-28T22:50:52.898Z,99036.06
2022-09-28T22:53:19.383Z,99030.84
2022-09-28T22:55:45.989Z,99037.94
2022-09-28T22:58:12.860Z,99038.91
2022-09-28T23:00:39.488Z,99035.47
2022-09-28T23:03:06.151Z,99036.41
2022-09-28T23:05:32.778Z,99038.22
2022-09-28T23:07:59.287Z,99032.94
2022-09-28T23:10:25.935Z,99038.28
2022-09-28T23:12:55.466Z,99033.91
2022-09-28T23:15:22.966Z,99039.22
2022-09-28T23:17:53.501Z,99037.44
2022-09-28T23:20:21.325Z,99047.13
2022-09-28T23:22:48.938Z,99045.34
2022-09-28T23:25:17.190Z,99042.69
2022-09-28T23:27:50.788Z,99033.88
2022-09-28T23:30:19.278Z,99032.94
2022-09-28T23:32:45.871Z,99031.19
2022-09-28T23:35:14.178Z,99033.78
2022-09-28T23:37:40.774Z,99042.59
2022-09-28T23:40:07.668Z,99045.22
2022-09-28T23:42:35.431Z,99038.16
2022-09-28T23:45:02.029Z,99048.72
2022-09-28T23:47:28.606Z,99046.91
2022-09-28T23:49:55.177Z,99053.97
2022-09-28T23:52:21.704Z,99052.22
2022-09-28T23:54:48.209Z,99046.91
2022-09-28T23:57:17.021Z,99046.06
2022-09-28T23:59:43.563Z,99040.84
